createdAt,value
2022-09-21T00:00:18.827Z,100.00
2022-09-21T00:01:24.886Z,100.00
2022-09-21T00:02:27.127Z,100.00
2022-09-21T00:03:29.618Z,100.00
2022-09-21T00:04:31.717Z,100.00
2022-09-21T00:05:34.756Z,100.00
2022-09-21T00:06:37.362Z,100.00
2022-09-21T00:07:39.465Z,100.00
2022-09-21T00:08:42.723Z,100.00
2022-09-21T00:09:44.939Z,100.00
2022-09-21T00:10:50.209Z,100.00
2022-09-21T00:11:56.365Z,100.00
2022-09-21T00:13:02.942Z,100.00
2022-09-21T00:14:10.388Z,100.00
2022-09-21T00:15:12.616Z,100.00
2022-09-21T00:16:16.733Z,100.00
2022-09-21T00:17:18.864Z,100.00
2022-09-21T00:18:21.441Z,100.00
2022-09-21T00:19:23.635Z,100.00
2022-09-21T00:20:27.835Z,100.00
2022-09-21T00:21:30.458Z,100.00
2022-09-21T00:22:33.433Z,100.00
2022-09-21T00:23:36.640Z,100.00
2022-09-21T00:24:38.976Z,100.00
2022-09-21T00:25:41.140Z,100.00
2022-09-21T00:26:43.235Z,100.00
2022-09-21T00:27:47.786Z,100.00
2022-09-21T00:29:08.230Z,100.00
2022-09-21T00:30:11.478Z,100.00
2022-09-21T00:31:15.846Z,100.00
2022-09-21T00:32:18.001Z,100.00
2022-09-21T00:33:20.087Z,100.00
2022-09-21T00:34:22.215Z,100.00
2022-09-21T00:35:24.337Z,100.00
2022-09-21T00:36:28.213Z,100.00
2022-09-21T00:37:30.856Z,100.00
2022-09-21T00:38:33.912Z,100.00
2022-09-21T00:39:36.015Z,100.00
2022-09-21T00:40:38.122Z,100.00
2022-09-21T00:41:40.438Z,100.00
2022-09-21T00:42:42.635Z,100.00
2022-09-21T00:44:09.157Z,100.00
2022-09-21T00:45:21.136Z,100.00
2022-09-21T00:46:30.097Z,100.00
2022-09-21T00:47:35.342Z,100.00
2022-09-21T00:48:37.571Z,100.00
2022-09-21T00:49:42.992Z,100.00
2022-09-21T00:50:53.853Z,100.00
2022-09-21T00:51:58.672Z,100.00
2022-09-21T00:53:00.838Z,100.00
2022-09-21T00:54:09.627Z,100.00
2022-09-21T00:55:16.040Z,100.00
2022-09-21T00:56:18.141Z,100.00
2022-09-21T00:57:23.684Z,100.00
2022-09-21T00:58:30.478Z,100.00
2022-09-21T00:59:36.713Z,100.00
2022-09-21T01:00:40.350Z,100.00
2022-09-21T01:01:43.047Z,100.00
2022-09-21T01:02:46.032Z,100.00
2022-09-21T01:03:50.801Z,100.00
2022-09-21T01:04:55.016Z,100.00
2022-09-21T01:05:57.213Z,100.00
2022-09-21T01:07:05.602Z,100.00
2022-09-21T01:08:12.467Z,100.00
2022-09-21T01:09:16.015Z,100.00
2022-09-21T01:10:19.925Z,100.00
2022-09-21T01:11:55.075Z,100.00
2022-09-21T01:13:30.190Z,100.00
2022-09-21T01:14:55.189Z,100.00
2022-09-21T01:16:20.037Z,100.00
2022-09-21T01:17:51.224Z,100.00
2022-09-21T01:19:12.918Z,100.00
2022-09-21T01:20:39.726Z,100.00
2022-09-21T01:21:52.872Z,100.00
2022-09-21T01:23:14.834Z,100.00
2022-09-21T01:24:24.473Z,100.00
2022-09-21T01:25:35.633Z,100.00
2022-09-21T01:26:50.606Z,100.00
2022-09-21T01:28:02.983Z,100.00
2022-09-21T01:29:29.649Z,100.00
2022-09-21T01:30:35.227Z,100.00
2022-09-21T01:31:49.763Z,100.00
2022-09-21T01:33:03.136Z,100.00
2022-09-21T01:34:12.389Z,100.00
2022-09-21T01:35:23.075Z,100.00
2022-09-21T01:36:30.890Z,100.00
2022-09-21T01:37:38.680Z,100.00
2022-09-21T01:38:53.263Z,100.00
2022-09-21T01:40:01.048Z,100.00
2022-09-21T01:41:07.088Z,100.00
2022-09-21T01:42:11.666Z,100.00
2022-09-21T01:43:20.499Z,100.00
2022-09-21T01:44:28.572Z,100.00
2022-09-21T01:45:44.410Z,100.00
2022-09-21T01:46:48.326Z,100.00
2022-09-21T01:47:52.102Z,100.00
2022-09-21T01:49:05.848Z,100.00
2022-09-21T01:50:11.843Z,100.00
2022-09-21T01:51:18.029Z,100.00
2022-09-21T01:52:31.909Z,100.00
2022-09-21T01:53:42.501Z,100.00
2022-09-21T01:54:54.430Z,100.00
2022-09-21T01:56:18.165Z,100.00
2022-09-21T01:57:23.588Z,100.00
2022-09-21T01:58:42.358Z,100.00
2022-09-21T01:59:57.022Z,100.00
2022-09-21T02:00:59.469Z,100.00
2022-09-21T02:02:08.989Z,100.00
2022-09-21T02:03:19.140Z,100.00
2022-09-21T02:04:21.496Z,100.00
2022-09-21T02:05:26.301Z,100.00
2022-09-21T02:06:30.094Z,100.00
2022-09-21T02:07:36.917Z,100.00
2022-09-21T02:08:39.498Z,100.00
2022-09-21T02:09:41.682Z,100.00
2022-09-21T02:10:49.464Z,100.00
2022-09-21T02:11:51.569Z,100.00
2022-09-21T02:13:01.318Z,100.00
2022-09-21T02:14:03.478Z,100.00
2022-09-21T02:15:06.330Z,100.00
2022-09-21T02:16:12.205Z,100.00
2022-09-21T02:17:20.089Z,100.00
2022-09-21T02:18:55.053Z,100.00
2022-09-21T02:20:19.579Z,100.00
2022-09-21T02:21:31.481Z,100.00
2022-09-21T02:22:42.721Z,100.00
2022-09-21T02:24:03.106Z,100.00
2022-09-21T02:25:15.744Z,100.00
2022-09-21T02:26:27.182Z,100.00
2022-09-21T02:27:55.802Z,100.00
2022-09-21T02:29:43.027Z,100.00
2022-09-21T02:30:53.570Z,100.00
2022-09-21T02:32:05.161Z,100.00
2022-09-21T02:33:17.782Z,100.00
2022-09-21T02:34:38.070Z,100.00
2022-09-21T02:35:55.430Z,100.00
2022-09-21T02:37:10.308Z,100.00
2022-09-21T02:38:17.854Z,100.00
2022-09-21T02:39:32.599Z,100.00
2022-09-21T02:40:44.825Z,100.00
2022-09-21T02:41:56.887Z,100.00
2022-09-21T02:43:33.711Z,100.00
2022-09-21T02:44:42.585Z,100.00
2022-09-21T02:45:51.992Z,100.00
2022-09-21T02:46:59.200Z,100.00
2022-09-21T02:48:07.883Z,100.00
2022-09-21T02:49:17.000Z,100.00
2022-09-21T02:50:26.900Z,100.00
2022-09-21T02:51:32.792Z,100.00
2022-09-21T02:52:39.026Z,100.00
2022-09-21T02:53:43.337Z,100.00
2022-09-21T02:54:50.884Z,100.00
2022-09-21T02:55:56.689Z,100.00
2022-09-21T02:57:00.499Z,100.00
2022-09-21T02:58:06.877Z,100.00
2022-09-21T02:59:10.126Z,100.00
2022-09-21T03:00:12.793Z,100.00
2022-09-21T03:01:16.215Z,100.00
2022-09-21T03:02:18.430Z,100.00
2022-09-21T03:03:23.244Z,100.00
2022-09-21T03:04:27.842Z,100.00
2022-09-21T03:05:30.085Z,100.00
2022-09-21T03:06:32.749Z,100.00
2022-09-21T03:07:34.915Z,100.00
2022-09-21T03:08:37.165Z,100.00
2022-09-21T03:09:39.464Z,100.00
2022-09-21T03:10:41.841Z,100.00
2022-09-21T03:11:43.962Z,100.00
2022-09-21T03:12:46.834Z,100.00
2022-09-21T03:13:48.953Z,100.00
2022-09-21T03:14:51.330Z,100.00
2022-09-21T03:16:03.186Z,100.00
2022-09-21T03:17:05.336Z,100.00
2022-09-21T03:18:09.560Z,100.00
2022-09-21T03:19:14.998Z,100.00
2022-09-21T03:20:17.093Z,100.00
2022-09-21T03:21:19.182Z,100.00
2022-09-21T03:22:22.621Z,100.00
2022-09-21T03:23:25.179Z,100.00
2022-09-21T03:24:45.588Z,100.00
2022-09-21T03:25:47.763Z,100.00
2022-09-21T03:26:50.020Z,100.00
2022-09-21T03:27:54.957Z,100.00
2022-09-21T03:28:57.153Z,100.00
2022-09-21T03:30:02.191Z,100.00
2022-09-21T03:31:06.556Z,100.00
2022-09-21T03:32:08.836Z,100.00
2022-09-21T03:33:12.865Z,100.00
2022-09-21T03:34:15.059Z,100.00
2022-09-21T03:35:18.426Z,100.00
2022-09-21T03:36:20.980Z,100.00
2022-09-21T03:37:23.101Z,100.00
2022-09-21T03:38:26.553Z,100.00
2022-09-21T03:39:29.358Z,100.00
2022-09-21T03:40:32.531Z,100.00
2022-09-21T03:41:34.909Z,100.00
2022-09-21T03:42:37.018Z,100.00
2022-09-21T03:43:39.139Z,100.00
2022-09-21T03:44:41.441Z,100.00
2022-09-21T03:45:44.186Z,100.00
2022-09-21T03:46:46.306Z,100.00
2022-09-21T03:47:48.766Z,100.00
2022-09-21T03:48:50.869Z,100.00
2022-09-21T03:49:54.076Z,100.00
2022-09-21T03:50:57.072Z,100.00
2022-09-21T03:51:59.537Z,100.00
2022-09-21T03:53:01.677Z,100.00
2022-09-21T03:54:04.661Z,100.00
2022-09-21T03:55:08.729Z,100.00
2022-09-21T03:56:10.860Z,100.00
2022-09-21T03:57:12.963Z,100.00
2022-09-21T03:58:15.091Z,100.00
2022-09-21T03:59:17.544Z,100.00
2022-09-21T04:00:20.300Z,100.00
2022-09-21T04:01:22.499Z,100.00
2022-09-21T04:02:24.685Z,100.00
2022-09-21T04:03:26.822Z,100.00
2022-09-21T04:04:28.946Z,100.00
2022-09-21T04:05:31.092Z,100.00
2022-09-21T04:06:33.931Z,100.00
2022-09-21T04:07:36.786Z,100.00
2022-09-21T04:08:39.774Z,100.00
2022-09-21T04:09:41.951Z,100.00
2022-09-21T04:10:44.113Z,100.00
2022-09-21T04:11:48.169Z,100.00
2022-09-21T04:12:50.271Z,100.00
2022-09-21T04:13:56.865Z,100.00
2022-09-21T04:14:59.130Z,100.00
2022-09-21T04:16:01.484Z,100.00
2022-09-21T04:17:04.037Z,100.00
2022-09-21T04:18:06.221Z,100.00
2022-09-21T04:19:08.446Z,100.00
2022-09-21T04:20:10.694Z,100.00
2022-09-21T04:21:12.794Z,100.00
2022-09-21T04:22:15.460Z,100.00
2022-09-21T04:23:17.600Z,100.00
2022-09-21T04:24:19.757Z,100.00
2022-09-21T04:25:21.938Z,100.00
2022-09-21T04:26:30.061Z,100.00
2022-09-21T04:27:32.926Z,100.00
2022-09-21T04:28:35.043Z,100.00
2022-09-21T04:29:37.744Z,100.00
2022-09-21T04:30:40.289Z,100.00
2022-09-21T04:31:43.754Z,100.00
2022-09-21T04:32:46.518Z,100.00
2022-09-21T04:33:50.556Z,100.00
2022-09-21T04:34:52.666Z,100.00
2022-09-21T04:35:56.028Z,100.00
2022-09-21T04:36:59.072Z,100.00
2022-09-21T04:38:01.174Z,100.00
2022-09-21T04:39:04.915Z,100.00
2022-09-21T04:40:08.084Z,100.00
2022-09-21T04:41:10.820Z,100.00
2022-09-21T04:42:13.186Z,100.00
2022-09-21T04:43:17.671Z,100.00
2022-09-21T04:44:22.889Z,100.00
2022-09-21T04:45:25.007Z,100.00
2022-09-21T04:46:27.204Z,100.00
2022-09-21T04:47:30.891Z,100.00
2022-09-21T04:48:33.014Z,100.00
2022-09-21T04:49:35.154Z,100.00
2022-09-21T04:50:38.057Z,100.00
2022-09-21T04:51:43.707Z,100.00
2022-09-21T04:52:45.829Z,100.00
2022-09-21T04:53:47.992Z,100.00
2022-09-21T04:54:51.037Z,100.00
2022-09-21T04:55:53.290Z,100.00
2022-09-21T04:56:55.474Z,100.00
2022-09-21T04:57:57.771Z,100.00
2022-09-21T04:58:59.922Z,100.00
2022-09-21T05:00:05.558Z,100.00
2022-09-21T05:01:07.831Z,100.00
2022-09-21T05:02:10.088Z,100.00
2022-09-21T05:03:12.247Z,100.00
2022-09-21T05:04:14.528Z,100.00
2022-09-21T05:05:16.826Z,100.00
2022-09-21T05:06:18.925Z,100.00
2022-09-21T05:07:21.005Z,100.00
2022-09-21T05:08:43.660Z,100.00
2022-09-21T05:10:03.705Z,100.00
2022-09-21T05:11:07.213Z,100.00
2022-09-21T05:12:09.835Z,100.00
2022-09-21T05:13:11.912Z,100.00
2022-09-21T05:14:14.091Z,100.00
2022-09-21T05:15:16.259Z,100.00
2022-09-21T05:16:19.234Z,100.00
2022-09-21T05:17:22.867Z,100.00
2022-09-21T05:18:25.138Z,100.00
2022-09-21T05:19:27.254Z,100.00
2022-09-21T05:20:29.447Z,100.00
2022-09-21T05:21:31.723Z,100.00
2022-09-21T05:22:33.900Z,100.00
2022-09-21T05:23:36.076Z,100.00
2022-09-21T05:24:38.186Z,100.00
2022-09-21T05:25:40.265Z,100.00
2022-09-21T05:26:42.358Z,100.00
2022-09-21T05:27:44.514Z,100.00
2022-09-21T05:28:47.070Z,100.00
2022-09-21T05:29:49.760Z,100.00
2022-09-21T05:31:17.100Z,100.00
2022-09-21T05:32:48.961Z,100.00
2022-09-21T05:33:58.631Z,100.00
2022-09-21T05:35:19.435Z,100.00
2022-09-21T05:36:53.331Z,100.00
2022-09-21T05:37:59.111Z,100.00
2022-09-21T05:39:01.473Z,100.00
2022-09-21T05:40:05.575Z,100.00
2022-09-21T05:41:08.393Z,100.00
2022-09-21T05:42:10.952Z,100.00
2022-09-21T05:43:13.662Z,100.00
2022-09-21T05:44:16.042Z,100.00
2022-09-21T05:45:21.091Z,100.00
2022-09-21T05:46:41.011Z,100.00
2022-09-21T05:48:16.121Z,100.00
2022-09-21T05:49:29.827Z,100.00
2022-09-21T05:50:57.296Z,100.00
2022-09-21T05:52:37.301Z,100.00
2022-09-21T05:53:58.657Z,100.00
2022-09-21T05:55:34.465Z,100.00
2022-09-21T05:56:43.716Z,100.00
2022-09-21T05:58:17.701Z,100.00
2022-09-21T05:59:36.814Z,100.00
2022-09-21T06:00:52.690Z,100.00
2022-09-21T06:02:16.293Z,100.00
2022-09-21T06:03:29.184Z,100.00
2022-09-21T06:04:31.611Z,100.00
2022-09-21T06:05:33.774Z,100.00
2022-09-21T06:06:35.874Z,100.00
2022-09-21T06:07:38.176Z,100.00
2022-09-21T06:08:40.320Z,100.00
2022-09-21T06:09:43.369Z,100.00
2022-09-21T06:10:45.993Z,100.00
2022-09-21T06:11:48.567Z,100.00
2022-09-21T06:12:50.852Z,100.00
2022-09-21T06:13:52.987Z,100.00
2022-09-21T06:14:56.359Z,100.00
2022-09-21T06:16:03.159Z,100.00
2022-09-21T06:17:05.352Z,100.00
2022-09-21T06:18:08.327Z,100.00
2022-09-21T06:19:13.781Z,100.00
2022-09-21T06:20:15.965Z,100.00
2022-09-21T06:21:18.143Z,100.00
2022-09-21T06:22:20.334Z,100.00
2022-09-21T06:23:22.470Z,100.00
2022-09-21T06:24:25.259Z,100.00
2022-09-21T06:25:27.634Z,100.00
2022-09-21T06:26:29.840Z,100.00
2022-09-21T06:27:31.939Z,100.00
2022-09-21T06:28:34.149Z,100.00
2022-09-21T06:29:36.403Z,100.00
2022-09-21T06:30:40.971Z,100.00
2022-09-21T06:31:43.122Z,100.00
2022-09-21T06:32:45.267Z,100.00
2022-09-21T06:33:48.239Z,100.00
2022-09-21T06:34:50.534Z,100.00
2022-09-21T06:36:00.242Z,100.00
2022-09-21T06:37:03.146Z,100.00
2022-09-21T06:38:07.143Z,100.00
2022-09-21T06:39:09.241Z,100.00
2022-09-21T06:40:11.721Z,100.00
2022-09-21T06:41:18.591Z,100.00
2022-09-21T06:42:23.121Z,100.00
2022-09-21T06:43:25.214Z,100.00
2022-09-21T06:44:27.329Z,100.00
2022-09-21T06:45:31.087Z,100.00
2022-09-21T06:46:33.192Z,100.00
2022-09-21T06:47:35.287Z,100.00
2022-09-21T06:48:37.485Z,100.00
2022-09-21T06:49:42.550Z,100.00
2022-09-21T06:50:44.866Z,100.00
2022-09-21T06:51:48.477Z,100.00
2022-09-21T06:52:50.587Z,100.00
2022-09-21T06:53:57.173Z,100.00
2022-09-21T06:54:59.546Z,100.00
2022-09-21T06:56:07.625Z,100.00
2022-09-21T06:57:09.718Z,100.00
2022-09-21T06:58:11.841Z,100.00
2022-09-21T06:59:14.054Z,100.00
2022-09-21T07:00:16.361Z,100.00
2022-09-21T07:01:19.741Z,100.00
2022-09-21T07:02:22.198Z,100.00
2022-09-21T07:03:25.137Z,100.00
2022-09-21T07:04:29.376Z,100.00
2022-09-21T07:05:33.156Z,100.00
2022-09-21T07:06:35.462Z,95.23
2022-09-21T07:07:37.750Z,100.00
2022-09-21T07:10:06.143Z,90.81
2022-09-21T07:11:09.014Z,83.44
2022-09-21T07:12:11.230Z,83.68
2022-09-21T07:13:13.358Z,82.37
2022-09-21T07:14:15.621Z,75.20
2022-09-21T07:15:19.327Z,73.01
2022-09-21T07:16:21.943Z,77.35
2022-09-21T07:17:24.340Z,73.67
2022-09-21T07:18:26.515Z,73.02
2022-09-21T07:19:28.744Z,72.86
2022-09-21T07:20:31.636Z,71.53
2022-09-21T07:21:33.779Z,70.35
2022-09-21T07:22:36.811Z,69.14
2022-09-21T07:23:39.303Z,68.92
2022-09-21T07:24:41.449Z,65.19
2022-09-21T07:25:45.148Z,67.73
2022-09-21T07:26:47.275Z,65.18
2022-09-21T07:27:49.422Z,63.06
2022-09-21T07:28:51.529Z,62.34
2022-09-21T07:29:53.854Z,61.61
2022-09-21T07:30:56.794Z,60.60
2022-09-21T07:31:58.947Z,59.32
2022-09-21T07:33:01.145Z,59.70
2022-09-21T07:34:03.484Z,59.26
2022-09-21T07:35:06.138Z,56.64
2022-09-21T07:36:11.387Z,55.31
2022-09-21T07:37:15.051Z,55.42
2022-09-21T07:38:17.158Z,54.13
2022-09-21T07:39:19.348Z,50.65
2022-09-21T07:40:25.001Z,52.37
2022-09-21T07:41:27.503Z,51.48
2022-09-21T07:42:30.205Z,53.72
2022-09-21T07:43:33.604Z,50.90
2022-09-21T07:44:35.708Z,50.50
2022-09-21T07:45:38.290Z,51.09
2022-09-21T07:46:45.767Z,49.84
2022-09-21T07:47:50.020Z,50.62
2022-09-21T07:48:54.677Z,51.73
2022-09-21T07:49:56.881Z,51.65
2022-09-21T07:51:06.498Z,53.27
2022-09-21T07:52:11.277Z,53.25
2022-09-21T07:53:16.237Z,56.45
2022-09-21T07:54:18.341Z,56.58
2022-09-21T07:55:20.503Z,58.08
2022-09-21T07:56:23.049Z,58.14
2022-09-21T07:57:43.520Z,55.70
2022-09-21T07:59:04.298Z,53.92
2022-09-21T08:00:06.825Z,52.70
2022-09-21T08:01:13.707Z,57.50
2022-09-21T08:02:16.045Z,55.71
2022-09-21T08:03:18.354Z,53.33
2022-09-21T08:04:20.494Z,52.42
2022-09-21T08:05:22.588Z,49.69
2022-09-21T08:06:27.505Z,48.50
2022-09-21T08:07:29.593Z,48.18
2022-09-21T08:08:31.737Z,46.98
2022-09-21T08:09:34.750Z,46.66
2022-09-21T08:10:37.203Z,46.85
2022-09-21T08:11:43.319Z,45.63
2022-09-21T08:12:45.752Z,47.89
2022-09-21T08:13:48.897Z,47.20
2022-09-21T08:14:51.048Z,48.10
2022-09-21T08:16:00.817Z,47.09
2022-09-21T08:17:03.202Z,46.60
2022-09-21T08:18:07.143Z,48.12
2022-09-21T08:19:09.281Z,47.07
2022-09-21T08:20:11.445Z,46.50
2022-09-21T08:21:14.058Z,47.28
2022-09-21T08:22:16.177Z,47.01
2022-09-21T08:23:18.637Z,46.42
2022-09-21T08:24:21.002Z,45.68
2022-09-21T08:25:23.800Z,44.56
2022-09-21T08:26:26.271Z,44.88
2022-09-21T08:27:28.933Z,44.00
2022-09-21T08:28:31.319Z,42.85
2022-09-21T08:29:33.590Z,42.81
2022-09-21T08:30:35.733Z,41.67
2022-09-21T08:31:37.909Z,42.96
2022-09-21T08:32:51.089Z,42.90
2022-09-21T08:33:55.212Z,42.71
2022-09-21T08:34:57.369Z,40.65
2022-09-21T08:36:01.057Z,41.81
2022-09-21T08:37:03.415Z,41.87
2022-09-21T08:38:06.345Z,41.37
2022-09-21T08:39:09.274Z,41.37
2022-09-21T08:40:12.404Z,40.22
2022-09-21T08:41:21.927Z,39.13
2022-09-21T08:42:42.125Z,39.33
2022-09-21T08:43:50.050Z,39.15
2022-09-21T08:44:57.067Z,38.85
2022-09-21T08:46:00.483Z,39.51
2022-09-21T08:47:19.869Z,38.73
2022-09-21T08:48:35.833Z,39.21
2022-09-21T08:49:42.907Z,39.29
2022-09-21T08:50:53.089Z,41.44
2022-09-21T08:52:03.431Z,41.60
2022-09-21T08:53:15.035Z,45.23
2022-09-21T08:54:22.682Z,43.54
2022-09-21T08:55:24.897Z,43.71
2022-09-21T08:56:47.181Z,42.80
2022-09-21T08:57:49.897Z,40.62
2022-09-21T08:58:52.052Z,40.17
2022-09-21T08:59:54.214Z,38.98
2022-09-21T09:01:14.843Z,38.43
2022-09-21T09:02:35.719Z,37.52
2022-09-21T09:04:11.572Z,36.62
2022-09-21T09:05:38.431Z,37.89
2022-09-21T09:06:52.417Z,36.71
2022-09-21T09:08:18.849Z,35.96
2022-09-21T09:09:33.571Z,37.32
2022-09-21T09:11:06.248Z,39.17
2022-09-21T09:12:25.595Z,37.71
2022-09-21T09:13:42.560Z,36.18
2022-09-21T09:15:02.755Z,38.11
2022-09-21T09:16:10.896Z,38.08
2022-09-21T09:17:34.639Z,35.01
2022-09-21T09:18:52.872Z,34.04
2022-09-21T09:20:06.724Z,33.75
2022-09-21T09:21:29.937Z,33.17
2022-09-21T09:23:04.621Z,34.06
2022-09-21T09:24:10.372Z,35.56
2022-09-21T09:25:20.719Z,34.88
2022-09-21T09:26:34.998Z,33.33
2022-09-21T09:27:41.794Z,33.16
2022-09-21T09:28:53.188Z,33.85
2022-09-21T09:30:14.098Z,35.58
2022-09-21T09:31:24.664Z,36.11
2022-09-21T09:32:51.428Z,35.95
2022-09-21T09:34:10.164Z,33.88
2022-09-21T09:35:33.210Z,32.20
2022-09-21T09:36:57.405Z,33.04
2022-09-21T09:38:26.006Z,31.32
2022-09-21T09:39:30.714Z,30.32
2022-09-21T09:40:42.124Z,30.59
2022-09-21T09:41:53.060Z,30.13
2022-09-21T09:43:09.205Z,32.84
2022-09-21T09:44:50.550Z,32.68
2022-09-21T09:46:06.179Z,36.90
2022-09-21T09:47:27.470Z,36.69
2022-09-21T09:48:39.938Z,34.91
2022-09-21T09:49:57.289Z,34.00
2022-09-21T09:50:59.505Z,32.13
2022-09-21T09:52:02.385Z,31.38
2022-09-21T09:53:13.149Z,29.88
2022-09-21T09:54:17.452Z,28.58
2022-09-21T09:55:25.975Z,28.49
2022-09-21T09:56:28.542Z,28.73
2022-09-21T09:57:33.096Z,28.83
2022-09-21T09:58:59.627Z,29.12
2022-09-21T10:00:12.293Z,31.43
2022-09-21T10:01:41.989Z,30.98
2022-09-21T10:02:51.283Z,31.75
2022-09-21T10:04:08.781Z,31.23
2022-09-21T10:05:24.274Z,32.40
2022-09-21T10:06:33.237Z,30.87
2022-09-21T10:07:38.902Z,32.24
2022-09-21T10:08:44.723Z,33.21
2022-09-21T10:09:46.942Z,32.63
2022-09-21T10:10:49.627Z,32.09
2022-09-21T10:11:54.031Z,31.29
2022-09-21T10:13:04.045Z,31.76
2022-09-21T10:14:20.058Z,30.72
2022-09-21T10:15:24.943Z,30.47
2022-09-21T10:16:27.589Z,26.76
2022-09-21T10:17:29.929Z,26.11
2022-09-21T10:18:52.219Z,26.53
2022-09-21T10:20:02.229Z,26.35
2022-09-21T10:21:09.041Z,28.65
2022-09-21T10:22:18.239Z,28.79
2022-09-21T10:23:20.584Z,29.83
2022-09-21T10:24:30.582Z,27.59
2022-09-21T10:25:34.811Z,26.56
2022-09-21T10:26:49.862Z,28.17
2022-09-21T10:27:52.726Z,29.78
2022-09-21T10:29:22.822Z,27.93
2022-09-21T10:30:31.010Z,29.98
2022-09-21T10:31:33.178Z,30.23
2022-09-21T10:32:36.754Z,29.59
2022-09-21T10:34:06.540Z,29.03
2022-09-21T10:35:10.289Z,29.11
2022-09-21T10:36:51.096Z,27.91
2022-09-21T10:38:09.965Z,26.81
2022-09-21T10:39:11.947Z,27.08
2022-09-21T10:40:20.302Z,26.56
2022-09-21T10:41:23.184Z,27.81
2022-09-21T10:42:25.697Z,28.72
2022-09-21T10:43:45.287Z,28.18
2022-09-21T10:44:50.693Z,28.36
2022-09-21T10:45:55.758Z,27.01
2022-09-21T10:47:02.429Z,27.81
2022-09-21T10:48:11.086Z,26.73
2022-09-21T10:49:28.412Z,24.34
2022-09-21T10:50:40.008Z,23.80
2022-09-21T10:51:45.990Z,22.38
2022-09-21T10:52:49.619Z,22.45
2022-09-21T10:53:54.510Z,22.88
2022-09-21T10:54:57.371Z,22.20
2022-09-21T10:56:15.423Z,23.38
2022-09-21T10:57:22.592Z,24.92
2022-09-21T10:58:25.557Z,23.82
2022-09-21T10:59:32.882Z,22.50
2022-09-21T11:00:42.562Z,23.25
2022-09-21T11:01:50.747Z,23.72
2022-09-21T11:02:54.966Z,23.03
2022-09-21T11:04:08.694Z,22.44
2022-09-21T11:05:22.758Z,21.47
2022-09-21T11:06:41.552Z,21.45
2022-09-21T11:07:49.793Z,23.06
2022-09-21T11:09:10.949Z,24.87
2022-09-21T11:10:40.567Z,24.38
2022-09-21T11:11:53.172Z,24.43
2022-09-21T11:13:17.952Z,23.78
2022-09-21T11:14:27.779Z,24.26
2022-09-21T11:15:47.082Z,23.75
2022-09-21T11:17:07.632Z,23.79
2022-09-21T11:18:26.318Z,22.72
2022-09-21T11:19:36.213Z,24.39
2022-09-21T11:21:34.338Z,25.71
2022-09-21T11:23:00.581Z,26.26
2022-09-21T11:24:20.655Z,26.30
2022-09-21T11:25:32.584Z,25.36
2022-09-21T11:27:58.701Z,24.48
2022-09-21T11:29:09.011Z,26.64
2022-09-21T11:30:15.575Z,27.29
2022-09-21T11:31:37.386Z,27.44
2022-09-21T11:33:15.894Z,26.59
2022-09-21T11:34:35.177Z,28.31
2022-09-21T11:36:08.158Z,28.03
2022-09-21T11:37:52.532Z,26.63
2022-09-21T11:39:06.927Z,25.47
2022-09-21T11:40:30.646Z,25.56
2022-09-21T11:42:00.631Z,25.04
2022-09-21T11:43:15.178Z,25.43
2022-09-21T11:44:33.673Z,25.17
2022-09-21T11:45:48.421Z,23.94
2022-09-21T11:47:10.636Z,24.29
2022-09-21T11:48:47.477Z,26.11
2022-09-21T11:50:29.172Z,24.88
2022-09-21T11:51:47.996Z,25.33
2022-09-21T11:53:14.378Z,25.48
2022-09-21T11:54:26.072Z,25.99
2022-09-21T11:55:57.274Z,25.96
2022-09-21T11:57:19.159Z,25.06
2022-09-21T11:58:39.724Z,24.93
2022-09-21T11:59:42.501Z,25.79
2022-09-21T12:01:01.558Z,26.61
2022-09-21T12:02:35.681Z,27.30
2022-09-21T12:03:50.686Z,27.89
2022-09-21T12:05:01.112Z,28.43
2022-09-21T12:06:29.000Z,29.69
2022-09-21T12:08:02.120Z,29.76
2022-09-21T12:09:17.858Z,28.60
2022-09-21T12:10:39.098Z,27.42
2022-09-21T12:11:48.944Z,27.89
2022-09-21T12:13:08.776Z,26.22
2022-09-21T12:14:28.966Z,25.78
2022-09-21T12:15:44.296Z,26.74
2022-09-21T12:17:11.313Z,26.02
2022-09-21T12:18:29.956Z,24.12
2022-09-21T12:19:56.788Z,23.52
2022-09-21T12:21:19.048Z,23.69
2022-09-21T12:22:28.659Z,25.17
2022-09-21T12:23:36.538Z,26.01
2022-09-21T12:24:50.760Z,26.44
2022-09-21T12:25:57.309Z,26.99
2022-09-21T12:27:09.705Z,27.12
2022-09-21T12:28:15.352Z,27.83
2022-09-21T12:29:27.524Z,28.69
2022-09-21T12:30:32.626Z,30.00
2022-09-21T12:31:47.944Z,29.60
2022-09-21T12:33:09.524Z,29.95
2022-09-21T12:34:18.794Z,30.21
2022-09-21T12:35:34.791Z,29.92
2022-09-21T12:36:52.042Z,30.01
2022-09-21T12:38:07.022Z,30.15
2022-09-21T12:39:29.119Z,29.82
2022-09-21T12:40:39.344Z,29.86
2022-09-21T12:41:41.551Z,29.78
2022-09-21T12:42:56.887Z,28.87
2022-09-21T12:44:06.383Z,28.99
2022-09-21T12:45:30.234Z,28.52
2022-09-21T12:46:40.619Z,27.82
2022-09-21T12:47:53.276Z,26.25
2022-09-21T12:48:56.355Z,26.28
2022-09-21T12:50:16.067Z,27.05
2022-09-21T12:51:29.593Z,27.42
2022-09-21T12:52:33.107Z,27.78
2022-09-21T12:53:38.813Z,27.87
2022-09-21T12:55:06.679Z,28.05
2022-09-21T12:56:30.720Z,29.67
2022-09-21T12:58:13.972Z,27.22
2022-09-21T12:59:35.152Z,26.84
2022-09-21T13:00:57.230Z,26.69
2022-09-21T13:02:17.419Z,25.93
2022-09-21T13:03:30.858Z,25.86
2022-09-21T13:04:53.330Z,25.25
2022-09-21T13:06:23.198Z,23.83
2022-09-21T13:08:04.536Z,25.15
2022-09-21T13:09:12.709Z,26.14
2022-09-21T13:10:39.487Z,26.80
2022-09-21T13:12:15.696Z,26.43
2022-09-21T13:13:29.660Z,24.93
2022-09-21T13:14:36.201Z,25.76
2022-09-21T13:15:44.966Z,26.96
2022-09-21T13:16:57.579Z,26.40
2022-09-21T13:18:05.662Z,26.67
2022-09-21T13:19:13.789Z,27.06
2022-09-21T13:20:19.433Z,27.51
2022-09-21T13:21:29.770Z,28.04
2022-09-21T13:22:37.452Z,27.00
2022-09-21T13:23:42.147Z,26.65
2022-09-21T13:24:47.029Z,27.23
2022-09-21T13:25:59.476Z,27.68
2022-09-21T13:27:06.560Z,28.18
2022-09-21T13:28:09.892Z,28.42
2022-09-21T13:29:21.485Z,27.99
2022-09-21T13:30:38.589Z,28.21
2022-09-21T13:32:08.262Z,28.22
2022-09-21T13:33:19.262Z,28.63
2022-09-21T13:34:28.793Z,29.57
2022-09-21T13:36:02.186Z,31.01
2022-09-21T13:37:19.600Z,30.94
2022-09-21T13:38:34.036Z,31.98
2022-09-21T13:39:36.183Z,32.13
2022-09-21T13:40:53.408Z,32.32
2022-09-21T13:42:04.640Z,32.33
2022-09-21T13:43:19.013Z,32.48
2022-09-21T13:44:41.787Z,32.12
2022-09-21T13:45:51.404Z,32.21
2022-09-21T13:46:54.952Z,32.84
2022-09-21T13:48:00.105Z,34.32
2022-09-21T13:49:33.975Z,34.47
2022-09-21T13:50:42.995Z,35.36
2022-09-21T13:52:07.288Z,35.20
2022-09-21T13:53:23.698Z,35.50
2022-09-21T13:54:37.416Z,36.65
2022-09-21T13:55:49.123Z,36.99
2022-09-21T13:57:18.986Z,35.37
2022-09-21T13:58:26.920Z,35.06
2022-09-21T13:59:29.523Z,35.29
2022-09-21T14:00:39.959Z,35.28
2022-09-21T14:01:47.197Z,34.18
2022-09-21T14:02:54.717Z,34.36
2022-09-21T14:04:06.246Z,34.78
2022-09-21T14:05:25.785Z,33.50
2022-09-21T14:06:35.923Z,34.50
2022-09-21T14:08:58.027Z,33.16
2022-09-21T14:10:06.018Z,32.17
2022-09-21T14:11:17.852Z,31.94
2022-09-21T14:12:25.326Z,31.32
2022-09-21T14:13:36.634Z,32.42
2022-09-21T14:14:43.221Z,32.07
2022-09-21T14:15:45.340Z,32.50
2022-09-21T14:16:51.879Z,33.23
2022-09-21T14:18:17.511Z,34.94
2022-09-21T14:19:19.588Z,35.36
2022-09-21T14:20:37.147Z,35.36
2022-09-21T14:22:04.105Z,36.59
2022-09-21T14:23:15.093Z,36.82
2022-09-21T14:24:32.934Z,37.29
2022-09-21T14:26:02.071Z,37.65
2022-09-21T14:27:23.595Z,37.70
2022-09-21T14:28:43.344Z,38.10
2022-09-21T14:29:50.836Z,38.66
2022-09-21T14:32:00.871Z,39.64
2022-09-21T14:33:12.695Z,39.78
2022-09-21T14:34:23.600Z,39.72
2022-09-21T14:35:33.649Z,39.54
2022-09-21T14:36:45.671Z,39.61
2022-09-21T14:37:52.152Z,39.83
2022-09-21T14:39:00.430Z,38.98
2022-09-21T14:40:16.485Z,38.73
2022-09-21T14:41:22.893Z,38.87
2022-09-21T14:42:28.888Z,38.09
2022-09-21T14:43:36.074Z,37.95